Time;durP1;ratioP1;P1;durP2;ratioP2;P2;SDS_P1;SDS_P2;PMS_P1;PMS_P2;Temp;Humidity;BMP_temperature;BMP_pressure;BME280_temperature;BME280_humidity;BME280_pressure;Samples;Min_cycle;Max_cycle;Signal;HPM_P1;HPM_P2
2023/10/12 00:00:56;;;;;;;18.88;3.38;;;13.10;99.90;;;;;;5097689;28;20097;-80
2023/10/12 00:03:25;;;;;;;27.65;4.28;;;13.10;99.90;;;;;;5099458;28;20050;-79
2023/10/12 00:05:50;;;;;;;;;;;13.10;99.90;;;;;;5102110;28;20401;-79
2023/10/12 00:08:30;;;;;;;27.33;4.15;;;13.10;99.90;;;;;;5086518;28;19976;-79
2023/10/12 00:10:57;;;;;;;19.58;3.55;;;13.10;99.90;;;;;;5118145;28;20050;-79
2023/10/12 00:13:29;;;;;;;31.13;4.50;;;13.10;99.90;;;;;;5091706;28;20069;-79
2023/10/12 00:15:56;;;;;;;19.02;3.17;;;13.10;99.90;;;;;;5101745;28;20040;-78
2023/10/12 00:18:22;;;;;;;27.13;4.13;;;13.50;99.90;;;;;;5107928;28;20119;-78
2023/10/12 00:20:54;;;;;;;21.65;3.75;;;13.20;99.90;;;;;;5098702;28;20043;-78
2023/10/12 00:23:19;;;;;;;25.95;4.28;;;13.20;99.90;;;;;;5111560;28;20044;-79
2023/10/12 00:25:55;;;;;;;21.65;3.83;;;13.10;99.90;;;;;;5082887;28;20050;-78
2023/10/12 00:28:28;;;;;;;18.40;3.92;;;13.10;99.90;;;;;;5099996;28;20036;-79
2023/10/12 00:30:57;;;;;;;20.73;4.20;;;13.20;99.90;;;;;;5100629;28;20040;-79
2023/10/12 00:33:24;;;;;;;22.92;3.70;;;13.20;99.90;;;;;;5098187;28;20061;-80
2023/10/12 00:36:04;;;;;;;19.75;3.30;;;13.20;99.90;;;;;;5100928;28;20132;-79
2023/10/12 00:38:31;;;;;;;24.10;3.75;;;13.20;99.90;;;;;;5119216;28;20040;-78
2023/10/12 00:40:57;;;;;;;18.27;3.92;;;13.20;99.90;;;;;;5097681;28;20040;-79
2023/10/12 00:43:36;;;;;;;21.70;3.60;;;13.20;99.90;;;;;;5085705;28;20057;-80
2023/10/12 00:46:58;;;;;;;22.33;4.00;;;13.20;99.90;;;;;;5087735;28;20048;-79
2023/10/12 00:51:37;;;;;;;31.80;4.60;;;13.20;99.90;;;;;;5102853;28;20063;-79
2023/10/12 00:54:04;;;;;;;25.27;3.63;;;13.20;99.90;;;;;;5106400;28;20387;-79
2023/10/12 00:56:30;;;;;;;25.90;3.83;;;13.20;99.90;;;;;;5090196;28;20039;-80
2023/10/12 00:59:00;;;;;;;15.75;3.20;;;13.10;99.90;;;;;;5075321;28;20075;-79
2023/10/12 01:01:26;;;;;;;28.55;3.72;;;13.10;99.90;;;;;;5119278;28;20133;-79
2023/10/12 01:03:52;;;;;;;25.10;3.60;;;13.20;99.90;;;;;;5103496;28;20040;-79
2023/10/12 01:06:27;;;;;;;22.30;3.40;;;13.10;99.90;;;;;;5096669;28;20044;-79
2023/10/12 01:08:57;;;;;;;25.98;4.32;;;13.10;99.90;;;;;;5086926;28;20044;-79
2023/10/12 01:11:26;;;;;;;23.52;3.83;;;13.20;99.90;;;;;;5125712;27;20041;-79
2023/10/12 01:16:24;;;;;;;19.70;3.50;;;13.10;99.90;;;;;;5110394;28;20109;-79
2023/10/12 01:18:55;;;;;;;22.25;4.10;;;13.20;99.90;;;;;;5103250;28;20048;-79
2023/10/12 01:21:21;;;;;;;26.40;3.53;;;13.10;99.90;;;;;;5079858;28;20051;-79
2023/10/12 01:23:51;;;;;;;31.88;3.67;;;13.10;99.90;;;;;;5110789;28;20043;-79
2023/10/12 01:26:18;;;;;;;26.20;3.78;;;13.10;99.90;;;;;;5091997;28;20043;-79
2023/10/12 01:28:49;;;;;;;19.13;3.35;;;13.10;99.90;;;;;;5113699;28;20059;-79
2023/10/12 01:31:19;;;;;;;28.17;3.75;;;13.10;99.90;;;;;;5098719;28;20048;-80
2023/10/12 01:33:54;;;;;;;22.05;3.53;;;13.10;99.90;;;;;;5094642;28;20120;-79
2023/10/12 01:36:23;;;;;;;34.05;4.53;;;13.10;99.90;;;;;;5111315;28;20043;-78
2023/10/12 01:38:57;;;;;;;22.98;3.42;;;13.10;99.90;;;;;;5122029;28;20048;-78
2023/10/12 01:41:26;;;;;;;17.08;3.15;;;13.10;99.90;;;;;;5092640;28;20044;-79
2023/10/12 01:43:52;;;;;;;24.00;3.80;;;13.00;99.90;;;;;;5086786;28;20114;-79
2023/10/12 01:46:21;;;;;;;19.90;3.30;;;13.10;99.90;;;;;;5108225;27;20141;-78
2023/10/12 01:48:49;;;;;;;19.95;3.10;;;13.00;99.90;;;;;;5103640;28;20033;-78
2023/10/12 01:51:24;;;;;;;26.80;3.50;;;13.00;99.90;;;;;;5098344;28;20036;-78
2023/10/12 01:53:53;;;;;;;30.83;3.78;;;12.90;99.90;;;;;;5095490;28;20174;-77
2023/10/12 01:56:18;;;;;;;19.27;2.80;;;12.90;99.90;;;;;;5095080;28;20037;-77
2023/10/12 01:58:48;;;;;;;15.52;3.33;;;13.60;99.90;;;;;;5091802;28;20071;-77
2023/10/12 02:01:18;;;;;;;14.70;2.60;;;12.80;99.90;;;;;;5106455;28;20056;-78
2023/10/12 02:03:44;;;;;;;21.42;2.97;;;12.80;99.90;;;;;;5080484;28;20052;-78
2023/10/12 02:06:14;;;;;;;18.83;3.40;;;12.80;99.90;;;;;;5092375;28;20044;-78
2023/10/12 02:08:45;;;;;;;22.92;3.05;;;13.10;99.90;;;;;;5078992;28;20052;-78
2023/10/12 02:11:26;;;;;;;18.98;2.63;;;12.70;99.90;;;;;;5084599;28;20123;-78
2023/10/12 02:13:55;;;;;;;23.25;3.80;;;12.80;99.90;;;;;;5081113;28;20374;-78
2023/10/12 02:16:52;;;;;;;14.65;2.95;;;12.70;99.90;;;;;;5092299;28;20052;-78
2023/10/12 02:19:19;;;;;;;20.23;2.65;;;12.70;99.90;;;;;;5099434;28;20130;-77
2023/10/12 02:21:46;;;;;;;16.88;3.13;;;12.60;99.90;;;;;;5093787;28;20044;-78
2023/10/12 02:24:18;;;;;;;16.75;2.70;;;12.70;99.90;;;;;;5089289;28;20049;-78
2023/10/12 02:29:17;;;;;;;14.05;3.00;;;12.60;99.90;;;;;;5100325;28;20078;-77
2023/10/12 02:34:25;;;;;;;29.27;3.50;;;12.90;99.90;;;;;;5091849;28;20055;-77
2023/10/12 02:39:40;;;;;;;17.13;3.08;;;12.50;99.90;;;;;;5091065;28;20054;-76
2023/10/12 02:42:53;;;;;;;23.23;3.92;;;12.50;99.90;;;;;;5105826;28;20046;-77
2023/10/12 02:47:29;;;;;;;20.05;3.40;;;12.50;99.90;;;;;;5110003;28;20048;-78
2023/10/12 02:50:21;;;;;;;15.85;3.08;;;12.50;99.90;;;;;;5111262;28;20047;-79
2023/10/12 02:52:48;;;;;;;23.08;3.72;;;12.50;99.90;;;;;;5068817;28;20049;-77
2023/10/12 02:55:26;;;;;;;19.85;3.63;;;12.40;99.90;;;;;;5106002;28;20482;-79
2023/10/12 02:57:59;;;;;;;19.17;3.30;;;12.40;99.90;;;;;;5104688;28;20432;-77
2023/10/12 03:05:58;;;;;;;25.25;3.88;;;12.40;99.90;;;;;;5095083;28;20105;-78
2023/10/12 03:08:30;;;;;;;20.40;4.55;;;12.50;99.90;;;;;;5093572;28;20044;-78
2023/10/12 03:13:35;;;;;;;18.83;3.38;;;12.40;99.90;;;;;;5108040;28;20047;-77
2023/10/12 03:16:16;;;;;;;26.23;3.83;;;12.40;99.90;;;;;;5102821;28;20497;-78
2023/10/12 03:18:45;;;;;;;20.23;3.47;;;12.40;99.90;;;;;;5111155;28;20044;-79
2023/10/12 03:21:14;;;;;;;20.05;4.43;;;12.30;99.90;;;;;;5096970;28;20390;-78
2023/10/12 03:23:43;;;;;;;23.50;4.30;;;12.40;99.90;;;;;;5109554;28;20072;-78
2023/10/12 03:26:32;;;;;;;17.23;4.22;;;12.60;99.90;;;;;;5100889;28;20048;-78
2023/10/12 03:29:08;;;;;;;27.30;5.07;;;12.40;99.90;;;;;;5090645;28;20421;-78
2023/10/12 03:31:37;;;;;;;23.95;4.43;;;12.50;99.90;;;;;;5094751;28;20126;-79
2023/10/12 03:34:16;;;;;;;20.15;4.25;;;12.30;99.90;;;;;;5114580;28;20122;-78
2023/10/12 03:36:45;;;;;;;26.02;4.40;;;12.30;99.90;;;;;;5106451;28;20044;-78
2023/10/12 03:39:27;;;;;;;22.52;4.55;;;12.20;99.90;;;;;;5094224;28;20071;-79
2023/10/12 03:44:51;;;;;;;28.30;2.78;;;12.20;99.90;;;;;;5104148;27;20378;-78
2023/10/12 03:52:28;;;;;;;19.73;3.30;;;12.20;99.90;;;;;;5093300;28;20053;-78
2023/10/12 03:54:55;;;;;;;15.13;3.28;;;12.20;99.90;;;;;;5093018;28;20126;-79
2023/10/12 04:00:25;;;;;;;18.45;2.85;;;12.10;99.90;;;;;;5085804;28;20063;-78
2023/10/12 04:02:54;;;;;;;22.27;3.63;;;12.10;99.90;;;;;;5082141;28;20079;-79
2023/10/12 04:05:21;;;;;;;20.40;3.08;;;12.10;99.90;;;;;;5072516;28;20099;-77
2023/10/12 04:13:54;;;;;;;19.35;3.30;;;12.00;99.90;;;;;;5088214;28;20040;-79
2023/10/12 04:21:33;;;;;;;23.40;3.50;;;12.00;99.90;;;;;;5096854;28;20120;-79
2023/10/12 04:26:44;;;;;;;14.75;2.53;;;12.00;99.90;;;;;;5102844;28;20044;-78
2023/10/12 04:29:13;;;;;;;17.45;3.17;;;12.00;99.90;;;;;;5095169;28;20040;-78
2023/10/12 04:34:08;;;;;;;16.88;3.22;;;11.90;99.90;;;;;;5096257;28;20185;-79
2023/10/12 04:36:44;;;;;;;23.65;2.88;;;11.90;99.90;;;;;;5092848;28;20100;-79
2023/10/12 04:39:24;;;;;;;23.17;2.88;;;12.50;99.90;;;;;;5120231;28;20497;-79
2023/10/12 04:42:01;;;;;;;23.77;3.08;;;11.90;99.90;;;;;;5091716;28;20375;-79
2023/10/12 04:47:04;;;;;;;17.80;3.13;;;11.80;99.90;;;;;;5088046;28;20154;-78
2023/10/12 04:57:26;;;;;;;18.20;3.30;;;11.80;99.90;;;;;;5089909;28;20060;-77
2023/10/12 05:02:42;;;;;;;17.52;2.63;;;11.80;99.90;;;;;;5085370;28;20461;-78
2023/10/12 05:05:15;;;;;;;14.00;2.50;;;12.00;99.90;;;;;;5094928;28;20040;-78
2023/10/12 05:13:06;;;;;;;19.35;3.05;;;11.70;99.90;;;;;;5088682;28;20473;-78
2023/10/12 05:18:20;;;;;;;15.05;2.50;;;11.70;99.90;;;;;;5104915;28;20044;-77
2023/10/12 05:20:45;;;;;;;14.88;2.85;;;11.60;99.90;;;;;;5090752;28;20048;-77
2023/10/12 05:23:11;;;;;;;19.20;2.97;;;11.60;99.90;;;;;;5071988;28;20043;-79
2023/10/12 05:26:25;;;;;;;13.73;2.70;;;11.60;99.90;;;;;;5116506;28;20044;-78
2023/10/12 05:28:27;;;;;;;18.90;2.70;;;11.50;99.90;;;;;;5103461;28;20451;-79
2023/10/12 05:31:09;;;;;;;16.95;3.40;;;11.50;99.90;;;;;;5103637;28;20096;-78
2023/10/12 05:33:43;;;;;;;12.35;2.50;;;11.50;99.90;;;;;;5100055;28;20173;-77
2023/10/12 05:36:14;;;;;;;13.13;2.95;;;11.40;99.90;;;;;;5109897;28;20058;-78
2023/10/12 05:38:52;;;;;;;15.20;2.83;;;11.50;99.90;;;;;;5090111;28;20059;-78
2023/10/12 05:41:33;;;;;;;18.63;2.72;;;11.40;99.90;;;;;;5092116;28;20091;-78
2023/10/12 05:44:04;;;;;;;15.27;2.97;;;11.40;99.90;;;;;;5101778;28;20436;-77
2023/10/12 05:46:33;;;;;;;14.52;2.65;;;11.30;99.90;;;;;;5078435;28;20097;-79
2023/10/12 05:49:01;;;;;;;13.57;3.15;;;11.30;99.90;;;;;;5099903;28;20123;-78
2023/10/12 05:51:27;;;;;;;13.15;2.40;;;11.20;99.90;;;;;;5094703;28;20102;-79
2023/10/12 05:54:03;;;;;;;13.88;3.00;;;11.10;99.90;;;;;;5099956;28;20043;-79
2023/10/12 05:56:34;;;;;;;20.15;3.05;;;11.10;99.90;;;;;;5082586;28;20092;-79
2023/10/12 05:59:00;;;;;;;15.55;2.80;;;11.10;99.90;;;;;;5075652;28;20052;-79
2023/10/12 06:01:32;;;;;;;22.33;3.15;;;11.10;99.90;;;;;;5099119;28;20045;-78
2023/10/12 06:03:58;;;;;;;19.17;3.03;;;11.10;99.90;;;;;;5078249;28;20055;-77
2023/10/12 06:06:32;;;;;;;19.13;3.20;;;11.10;99.90;;;;;;5097467;28;20073;-77
2023/10/12 06:08:59;;;;;;;12.48;2.92;;;11.00;99.90;;;;;;5099042;28;20043;-78
2023/10/12 06:11:26;;;;;;;16.30;3.08;;;11.00;99.90;;;;;;5080660;28;20175;-78
2023/10/12 06:13:59;;;;;;;21.75;3.05;;;11.00;99.90;;;;;;5097433;28;20055;-78
2023/10/12 06:16:26;;;;;;;17.50;2.88;;;11.00;99.90;;;;;;5108459;28;20044;-79
2023/10/12 06:18:54;;;;;;;13.13;3.00;;;10.90;99.90;;;;;;5080843;28;20043;-79
2023/10/12 06:21:20;;;;;;;18.95;3.33;;;10.90;99.90;;;;;;5087637;28;20047;-79
2023/10/12 06:23:50;;;;;;;12.52;2.78;;;11.00;99.90;;;;;;5085393;28;20036;-77
2023/10/12 06:26:28;;;;;;;14.65;2.97;;;11.00;99.90;;;;;;5108509;28;20048;-77
2023/10/12 06:28:58;;;;;;;13.63;3.05;;;11.00;99.90;;;;;;5109868;28;20044;-76
2023/10/12 06:31:30;;;;;;;16.88;3.25;;;11.00;99.90;;;;;;5104216;28;20055;-77
2023/10/12 06:33:59;;;;;;;13.98;3.38;;;11.00;99.90;;;;;;5111477;28;20040;-77
2023/10/12 06:36:37;;;;;;;19.58;2.63;;;11.00;99.90;;;;;;5092384;28;20127;-77
2023/10/12 06:44:22;;;;;;;17.00;3.03;;;11.00;99.90;;;;;;5093120;28;20047;-79
2023/10/12 06:46:48;;;;;;;14.13;2.97;;;11.00;99.90;;;;;;5108122;28;20052;-77
2023/10/12 06:49:18;;;;;;;19.75;2.97;;;11.00;99.90;;;;;;5076622;28;20036;-82
2023/10/12 06:51:53;;;;;;;18.45;3.22;;;11.00;99.90;;;;;;5100652;28;20062;-78
2023/10/12 06:54:39;;;;;;;12.82;2.65;;;11.00;99.90;;;;;;5081561;28;20044;-77
2023/10/12 07:00:16;;;;;;;14.52;2.83;;;11.10;99.90;;;;;;5084047;28;20051;-77
2023/10/12 07:02:43;;;;;;;19.55;3.50;;;11.10;99.90;;;;;;5098409;28;20107;-78
2023/10/12 07:05:09;;;;;;;27.27;3.97;;;11.10;99.90;;;;;;5103830;28;20575;-78
2023/10/12 07:07:44;;;;;;;19.92;5.30;;;11.10;99.90;;;;;;5100588;28;20056;-78
2023/10/12 07:12:50;;;;;;;14.38;3.00;;;11.20;99.90;;;;;;5092698;28;20484;-78
2023/10/12 07:15:26;;;;;;;19.05;3.53;;;11.30;99.90;;;;;;5088322;28;20048;-80
2023/10/12 07:17:53;;;;;;;15.55;4.10;;;11.30;99.90;;;;;;5078252;28;20049;-79
2023/10/12 07:23:05;;;;;;;;;;;11.50;99.90;;;;;;5099308;28;20449;-79
2023/10/12 07:25:35;;;;;;;19.30;3.30;;;11.70;99.90;;;;;;5098661;28;20372;-77
2023/10/12 07:28:05;;;;;;;18.50;3.17;;;12.10;99.90;;;;;;5092175;28;20076;-77
2023/10/12 07:30:33;;;;;;;15.57;3.58;;;12.40;99.90;;;;;;5088804;28;20043;-80
2023/10/12 07:33:04;;;;;;;14.60;2.97;;;12.50;99.90;;;;;;5100461;28;20047;-78
2023/10/12 07:35:32;;;;;;;16.27;3.35;;;12.70;99.90;;;;;;5092074;28;20538;-81
2023/10/12 07:38:12;;;;;;;15.52;3.38;;;12.80;99.90;;;;;;5093617;28;20043;-80
2023/10/12 07:40:56;;;;;;;17.00;3.65;;;12.90;99.90;;;;;;5086969;28;20478;-82
2023/10/12 07:43:24;;;;;;;14.27;3.60;;;12.80;99.90;;;;;;5103177;28;20040;-80
2023/10/12 07:45:50;;;;;;;15.00;2.88;;;12.90;99.90;;;;;;5101981;28;20047;-81
2023/10/12 07:48:31;;;;;;;13.10;2.75;;;13.10;99.90;;;;;;5105438;28;20028;-81
2023/10/12 07:51:15;;;;;;;11.80;3.53;;;13.20;99.90;;;;;;5102178;28;20099;-81
2023/10/12 07:53:50;;;;;;;19.75;3.20;;;13.20;99.90;;;;;;5102113;28;20394;-80
2023/10/12 07:56:17;;;;;;;16.20;3.75;;;13.30;99.90;;;;;;5086588;28;20047;-83
2023/10/12 07:58:44;;;;;;;23.48;4.07;;;13.20;99.90;;;;;;5098059;28;20104;-83
2023/10/12 08:03:58;;;;;;;12.60;3.50;;;13.20;99.90;;;;;;5119163;28;20040;-81
2023/10/12 08:06:42;;;;;;;19.52;3.83;;;13.20;99.90;;;;;;5110812;28;20072;-83
2023/10/12 08:11:53;;;;;;;18.38;3.50;;;14.60;99.90;;;;;;5116664;28;20190;-82
2023/10/12 08:19:44;;;;;;;22.88;4.50;;;13.10;99.90;;;;;;5124938;28;20052;-82
2023/10/12 08:22:29;;;;;;;16.35;3.58;;;13.30;99.90;;;;;;5102458;28;20048;-82
2023/10/12 08:24:56;;;;;;;20.38;4.45;;;13.30;99.90;;;;;;5092101;28;20399;-81
2023/10/12 08:27:23;;;;;;;17.25;3.60;;;13.20;99.90;;;;;;5095274;28;20375;-83
2023/10/12 08:32:42;;;;;;;17.58;3.80;;;13.30;99.90;;;;;;5099634;28;20044;-83
2023/10/12 08:37:27;;;;;;;13.23;3.35;;;13.40;99.90;;;;;;5092804;28;20142;-83
2023/10/12 08:45:00;;;;;;;18.70;3.75;;;13.90;99.90;;;;;;5102662;28;21505;-83
2023/10/12 08:52:33;;;;;;;16.10;3.55;;;13.50;99.90;;;;;;5111369;28;20052;-83
2023/10/12 08:55:08;;;;;;;18.10;3.05;;;13.60;99.90;;;;;;5082455;28;20123;-83
2023/10/12 08:57:55;;;;;;;9.80;2.58;;;13.60;99.90;;;;;;5084593;28;20109;-83
2023/10/12 09:03:08;;;;;;;17.25;3.10;;;13.60;99.90;;;;;;5070522;28;20044;-82
2023/10/12 09:05:34;;;;;;;15.05;2.40;;;13.60;99.90;;;;;;5100086;28;20071;-83
2023/10/12 09:10:49;;;;;;;11.48;2.20;;;13.50;99.90;;;;;;5094403;28;20060;-85
2023/10/12 09:13:17;;;;;;;16.00;2.72;;;13.80;99.90;;;;;;5135050;27;20051;-82
2023/10/12 09:15:46;;;;;;;17.13;2.35;;;13.50;99.90;;;;;;5101970;28;20058;-82
2023/10/12 09:18:32;;;;;;;16.85;2.72;;;13.60;99.90;;;;;;5141638;27;20040;-82
2023/10/12 09:23:46;;;;;;;19.15;2.35;;;13.90;99.90;;;;;;5088579;28;20202;-83
2023/10/12 09:26:15;;;;;;;12.68;3.00;;;14.10;99.90;;;;;;5076452;28;20051;-83
2023/10/12 09:31:15;;;;;;;15.60;2.55;;;14.20;99.90;;;;;;5100478;28;20043;-83
2023/10/12 09:33:45;;;;;;;15.85;3.13;;;14.40;99.90;;;;;;5094763;28;20112;-82
2023/10/12 09:36:11;;;;;;;11.27;2.30;;;14.70;99.90;;;;;;5108266;28;20035;-82
2023/10/12 09:38:38;;;;;;;17.75;3.05;;;14.90;99.90;;;;;;5105556;28;20043;-83
2023/10/12 09:41:14;;;;;;;11.27;2.15;;;15.60;99.90;;;;;;5100218;28;20055;-83
2023/10/12 09:43:44;;;;;;;13.60;2.28;;;14.50;99.90;;;;;;5088945;28;20053;-85
2023/10/12 09:46:13;;;;;;;16.52;2.60;;;15.10;99.90;;;;;;5085374;28;20040;-86
2023/10/12 09:48:44;;;;;;;12.00;2.40;;;16.40;99.90;;;;;;5091604;28;20056;-85
2023/10/12 09:51:15;;;;;;;8.13;2.40;;;15.00;99.90;;;;;;5106086;28;20067;-84
2023/10/12 09:53:57;;;;;;;19.05;2.88;;;15.00;99.90;;;;;;5109006;28;20051;-85
2023/10/12 09:56:34;;;;;;;29.48;3.38;;;15.00;99.90;;;;;;5115698;28;20048;-86
2023/10/12 09:59:13;;;;;;;15.93;2.88;;;15.20;99.90;;;;;;5097583;28;20125;-87
2023/10/12 10:04:27;;;;;;;13.40;2.28;;;15.50;99.90;;;;;;5102387;28;20048;-86
2023/10/12 10:07:18;;;;;;;11.20;2.13;;;15.50;99.90;;;;;;5107717;28;20074;-85
2023/10/12 10:09:52;;;;;;;11.10;2.17;;;15.60;99.90;;;;;;5107358;28;20060;-86
2023/10/12 10:12:20;;;;;;;11.45;2.25;;;15.80;99.90;;;;;;5095663;28;20077;-85
2023/10/12 10:14:54;;;;;;;14.50;2.38;;;16.00;99.90;;;;;;5107322;28;20719;-87
2023/10/12 10:17:46;;;;;;;17.48;2.63;;;16.10;99.90;;;;;;5125853;28;20043;-85
2023/10/12 10:23:07;;;;;;;11.70;2.03;;;15.90;99.90;;;;;;5115974;28;20055;-85
2023/10/12 10:25:45;;;;;;;12.93;2.22;;;15.90;99.90;;;;;;5114000;28;20112;-84
2023/10/12 10:28:23;;;;;;;15.65;2.38;;;16.40;99.90;;;;;;5082345;28;20071;-84
2023/10/12 10:30:52;;;;;;;10.38;2.10;;;16.80;99.90;;;;;;5118836;28;20043;-83
2023/10/12 10:33:23;;;;;;;14.93;2.33;;;17.30;99.90;;;;;;5104051;28;20118;-84
2023/10/12 10:36:00;;;;;;;11.15;3.00;;;17.80;99.90;;;;;;5099570;28;20059;-81
2023/10/12 10:38:34;;;;;;;12.02;2.20;;;18.20;99.90;;;;;;5128860;28;20106;-82
2023/10/12 10:41:18;;;;;;;11.85;2.28;;;18.20;99.90;;;;;;5103025;28;20077;-84
2023/10/12 10:43:45;;;;;;;14.07;2.90;;;18.30;99.90;;;;;;5119554;28;20039;-82
2023/10/12 10:46:13;;;;;;;11.95;3.03;;;18.40;99.90;;;;;;5105813;28;20037;-83
2023/10/12 10:48:53;;;;;;;12.85;2.38;;;18.30;99.90;;;;;;5108497;28;20045;-84
2023/10/12 10:51:32;;;;;;;7.78;1.92;;;18.20;99.90;;;;;;5103149;28;20055;-84
2023/10/12 10:53:59;;;;;;;9.82;1.95;;;18.40;99.90;;;;;;5083426;28;20120;-84
2023/10/12 10:56:38;;;;;;;13.77;2.42;;;18.60;99.90;;;;;;5100438;28;20049;-83
2023/10/12 10:59:12;;;;;;;11.23;1.90;;;19.00;99.90;;;;;;5098460;28;20044;-86
2023/10/12 11:01:46;;;;;;;12.57;2.38;;;19.30;99.90;;;;;;5089371;28;20044;-85
2023/10/12 11:04:18;;;;;;;12.57;2.60;;;19.40;99.90;;;;;;5083468;28;20044;-84
2023/10/12 11:06:47;;;;;;;13.60;2.58;;;19.40;99.90;;;;;;5085998;28;20121;-83
2023/10/12 11:09:17;;;;;;;15.18;2.35;;;19.40;99.90;;;;;;5104219;28;20111;-84
2023/10/12 11:11:48;;;;;;;10.35;1.92;;;19.20;99.90;;;;;;5094785;28;20371;-84
2023/10/12 11:14:18;;;;;;;12.43;2.17;;;19.00;99.90;;;;;;5101757;28;20055;-83
2023/10/12 11:16:48;;;;;;;7.57;1.98;;;18.50;99.90;;;;;;5104505;28;20050;-85
2023/10/12 11:19:23;;;;;;;10.90;2.55;;;18.00;99.90;;;;;;5122464;27;20048;-82
2023/10/12 11:21:51;;;;;;;7.03;1.67;;;18.20;99.90;;;;;;5109626;28;20049;-83
2023/10/12 11:24:18;;;;;;;9.82;2.40;;;17.30;99.90;;;;;;5104780;28;20066;-85
2023/10/12 11:26:52;;;;;;;10.25;2.22;;;16.90;99.90;;;;;;5083832;28;20075;-84
2023/10/12 11:29:18;;;;;;;8.20;2.22;;;16.70;99.90;;;;;;5114473;28;20435;-85
2023/10/12 11:32:08;;;;;;;12.75;2.75;;;16.50;99.90;;;;;;5123134;28;20047;-85
2023/10/12 11:34:54;;;;;;;11.63;2.22;;;16.40;99.90;;;;;;5124911;28;20063;-85
2023/10/12 11:37:20;;;;;;;11.07;2.05;;;16.40;99.90;;;;;;5110124;28;20064;-85
2023/10/12 11:39:47;;;;;;;9.18;2.38;;;16.20;99.90;;;;;;5083537;28;20032;-85
2023/10/12 11:42:14;;;;;;;;;;;16.10;99.90;;;;;;5094599;28;20067;-85
2023/10/12 11:44:45;;;;;;;13.35;2.25;;;16.10;99.90;;;;;;5114424;28;19920;-85
2023/10/12 11:47:38;;;;;;;12.60;2.15;;;16.10;99.90;;;;;;5124602;28;20364;-84
2023/10/12 11:50:09;;;;;;;10.57;2.10;;;15.90;99.90;;;;;;5085442;28;20056;-86
2023/10/12 11:52:37;;;;;;;8.55;2.53;;;15.80;99.90;;;;;;5093092;28;20084;-85
2023/10/12 11:55:20;;;;;;;17.13;2.67;;;15.80;99.90;;;;;;5087972;28;20055;-85
2023/10/12 11:57:54;;;;;;;13.18;2.30;;;15.80;99.90;;;;;;5109704;28;20040;-85
2023/10/12 12:00:29;;;;;;;16.17;2.20;;;15.80;99.90;;;;;;5112846;28;20048;-86
2023/10/12 12:03:02;;;;;;;10.02;2.35;;;15.90;99.90;;;;;;5108184;28;20071;-86
2023/10/12 12:05:33;;;;;;;10.48;2.42;;;15.90;99.90;;;;;;5102454;28;20051;-84
2023/10/12 12:08:05;;;;;;;8.40;2.05;;;15.80;99.90;;;;;;5115720;28;20077;-84
2023/10/12 12:13:20;;;;;;;11.05;2.05;;;15.50;99.90;;;;;;5095538;28;20052;-86
2023/10/12 12:15:46;;;;;;;10.77;2.22;;;15.40;99.90;;;;;;5093501;28;20100;-86
2023/10/12 12:18:20;;;;;;;9.55;1.98;;;15.30;99.90;;;;;;5108369;28;20068;-85
2023/10/12 12:20:47;;;;;;;8.95;1.98;;;15.30;99.90;;;;;;5099832;28;20048;-86
2023/10/12 12:23:13;;;;;;;10.32;2.58;;;15.30;99.90;;;;;;5094845;28;20044;-85
2023/10/12 12:25:40;;;;;;;10.68;2.35;;;15.20;99.90;;;;;;5119852;28;20037;-84
2023/10/12 12:28:14;;;;;;;11.20;2.45;;;15.10;99.90;;;;;;5113494;28;20040;-85
2023/10/12 12:31:15;;;;;;;18.30;3.00;;;15.20;99.90;;;;;;5099432;28;20080;-84
2023/10/12 12:33:36;;;;;;;9.20;2.10;;;15.10;99.90;;;;;;5095550;28;20075;-84
2023/10/12 12:36:08;;;;;;;13.45;2.97;;;15.10;99.90;;;;;;5126255;28;20044;-85
2023/10/12 12:38:44;;;;;;;11.65;2.65;;;15.10;99.90;;;;;;5088892;28;20458;-85
2023/10/12 12:41:19;;;;;;;8.68;2.30;;;15.10;99.90;;;;;;5111532;28;20048;-85
2023/10/12 12:43:49;;;;;;;15.07;2.55;;;15.10;99.90;;;;;;5105549;28;20058;-86
2023/10/12 12:46:16;;;;;;;10.00;2.30;;;15.00;99.90;;;;;;5106862;28;20162;-84
2023/10/12 12:48:45;;;;;;;10.25;2.40;;;15.70;99.90;;;;;;5087617;28;20105;-84
2023/10/12 12:51:13;;;;;;;12.48;2.58;;;15.00;99.90;;;;;;5104683;28;20044;-85
2023/10/12 12:53:39;;;;;;;12.82;2.67;;;15.00;99.90;;;;;;5108949;28;20048;-84
2023/10/12 12:56:05;;;;;;;12.85;2.80;;;14.90;99.90;;;;;;5106090;28;20036;-84
2023/10/12 12:58:32;;;;;;;13.07;2.40;;;15.00;99.90;;;;;;5110145;28;20040;-85
2023/10/12 13:01:00;;;;;;;9.23;2.45;;;14.90;99.90;;;;;;5093627;28;20044;-83
2023/10/12 13:03:28;;;;;;;16.35;2.53;;;14.90;99.90;;;;;;5132069;28;20036;-84
2023/10/12 13:05:54;;;;;;;;;;;14.90;99.90;;;;;;5111317;28;20071;-84
2023/10/12 13:08:20;;;;;;;7.90;2.15;;;14.80;99.90;;;;;;5113398;28;19927;-84
2023/10/12 13:10:48;;;;;;;11.35;2.08;;;14.80;99.90;;;;;;5135750;27;20483;-85
2023/10/12 13:13:14;;;;;;;10.50;2.40;;;14.80;99.90;;;;;;5112850;28;20047;-83
2023/10/12 13:15:47;;;;;;;11.70;2.90;;;14.80;99.90;;;;;;5109164;28;20033;-84
2023/10/12 13:18:16;;;;;;;11.20;2.13;;;14.70;99.90;;;;;;5104340;28;20040;-84
2023/10/12 13:20:49;;;;;;;11.20;2.28;;;15.20;99.90;;;;;;5120983;28;20054;-84
2023/10/12 13:23:18;;;;;;;9.52;2.45;;;14.80;99.90;;;;;;5097631;28;20064;-83
2023/10/12 13:25:44;;;;;;;9.05;2.35;;;14.80;99.90;;;;;;5092133;28;20108;-83
2023/10/12 13:28:10;;;;;;;13.80;2.35;;;14.80;99.90;;;;;;5093325;28;20040;-84
2023/10/12 13:30:37;;;;;;;6.45;1.88;;;14.80;99.90;;;;;;5113977;28;20111;-84
2023/10/12 13:33:05;;;;;;;21.58;2.65;;;14.80;99.90;;;;;;5114637;28;20033;-84
2023/10/12 13:35:45;;;;;;;12.18;2.60;;;14.80;99.90;;;;;;5094703;28;20040;-84
2023/10/12 13:38:14;;;;;;;12.18;2.20;;;14.80;99.90;;;;;;5107630;28;20048;-83
2023/10/12 13:40:45;;;;;;;16.60;2.75;;;14.80;99.90;;;;;;5107442;28;20044;-84
2023/10/12 13:43:15;;;;;;;12.95;3.00;;;14.80;99.90;;;;;;5091956;28;20037;-83
2023/10/12 13:45:48;;;;;;;9.82;2.25;;;14.80;99.90;;;;;;5115094;28;20059;-85
2023/10/12 13:48:17;;;;;;;7.18;2.45;;;14.70;99.90;;;;;;5092454;28;20127;-84
2023/10/12 13:50:46;;;;;;;10.43;2.17;;;14.70;99.90;;;;;;5090458;28;20482;-83
2023/10/12 13:53:15;;;;;;;10.68;2.17;;;15.40;99.90;;;;;;5092271;28;20058;-85
2023/10/12 13:55:42;;;;;;;18.50;2.58;;;14.70;99.90;;;;;;5117064;28;20123;-84
2023/10/12 13:58:10;;;;;;;18.98;2.67;;;14.70;99.90;;;;;;5088655;28;20051;-84
2023/10/12 14:00:38;;;;;;;10.20;2.08;;;14.60;99.90;;;;;;5082677;28;20504;-83
2023/10/12 14:03:10;;;;;;;8.60;2.00;;;14.60;99.90;;;;;;5100124;28;20049;-85
2023/10/12 14:05:40;;;;;;;14.05;2.83;;;14.50;99.90;;;;;;5102105;28;20045;-83
2023/10/12 14:08:09;;;;;;;12.98;2.55;;;14.50;99.90;;;;;;5096323;28;20059;-83
2023/10/12 14:10:44;;;;;;;12.15;2.45;;;14.50;99.90;;;;;;5100257;28;20551;-85
2023/10/12 14:13:13;;;;;;;13.60;2.35;;;14.40;99.90;;;;;;5086965;28;20063;-82
2023/10/12 14:15:43;;;;;;;10.57;2.40;;;14.50;99.90;;;;;;5105252;28;20040;-83
2023/10/12 14:18:16;;;;;;;12.75;3.13;;;14.50;99.90;;;;;;5099897;28;20055;-80
2023/10/12 14:20:45;;;;;;;18.77;3.35;;;14.50;99.90;;;;;;5103899;28;20102;-83
2023/10/12 14:23:14;;;;;;;8.40;2.30;;;14.50;99.90;;;;;;5103746;28;20512;-82
2023/10/12 14:25:56;;;;;;;14.63;2.60;;;14.50;99.90;;;;;;5109237;28;20048;-81
2023/10/12 14:28:34;;;;;;;14.18;2.15;;;14.40;99.90;;;;;;5125741;28;20080;-82
2023/10/12 14:31:05;;;;;;;17.83;2.67;;;14.50;99.90;;;;;;5112658;28;20040;-81
2023/10/12 14:33:31;;;;;;;14.38;2.88;;;14.80;99.90;;;;;;5100813;28;20106;-80
2023/10/12 14:36:16;;;;;;;14.57;2.90;;;14.40;99.90;;;;;;5118148;28;20051;-83
2023/10/12 14:38:47;;;;;;;11.60;2.30;;;13.80;99.90;;;;;;5101586;28;20047;-82
2023/10/12 14:41:40;;;;;;;;;;;;;;;;;;;;;
2023/10/12 14:44:16;;;;;;;14.30;3.17;;;14.10;99.90;;;;;;5096919;28;20032;-81
2023/10/12 14:46:45;;;;;;;13.15;3.05;;;14.40;99.90;;;;;;5093396;28;20040;-82
2023/10/12 14:49:11;;;;;;;17.05;3.00;;;14.10;99.90;;;;;;5099648;28;20040;-83
2023/10/12 14:51:42;;;;;;;9.90;2.20;;;14.30;99.90;;;;;;5092565;28;20055;-84
2023/10/12 14:54:25;;;;;;;20.05;4.68;;;14.10;99.90;;;;;;5108250;28;20127;-85
2023/10/12 14:56:53;;;;;;;16.58;4.10;;;14.60;99.90;;;;;;5122818;28;20044;-83
2023/10/12 14:59:19;;;;;;;11.63;3.25;;;13.90;99.90;;;;;;5121974;28;20147;-83
2023/10/12 15:01:46;;;;;;;14.18;3.97;;;13.80;99.90;;;;;;5126626;27;20068;-84
2023/10/12 15:04:12;;;;;;;15.00;3.75;;;13.80;99.90;;;;;;5115392;28;20059;-82
2023/10/12 15:06:42;;;;;;;17.02;4.00;;;12.90;99.90;;;;;;5081819;28;20033;-84
2023/10/12 15:09:12;;;;;;;13.20;3.20;;;13.60;99.90;;;;;;5105345;28;20048;-81
2023/10/12 15:11:38;;;;;;;17.00;3.30;;;14.20;99.90;;;;;;5096649;28;20102;-82
2023/10/12 15:14:06;;;;;;;11.80;2.90;;;13.70;99.90;;;;;;5100596;28;20061;-83